Time;durP1;ratioP1;P1;durP2;ratioP2;P2;SDS_P1;SDS_P2;PMS_P1;PMS_P2;Temp;Humidity;BMP_temperature;BMP_pressure;BME280_temperature;BME280_humidity;BME280_pressure;Samples;Min_cycle;Max_cycle;Signal;HPM_P1;HPM_P2
2023/05/22 00:01:25;;;;;;;;;;;;;;;21.78;30.76;97606.28;5075497;28;1527;-75
2023/05/22 00:03:53;;;;;;;;;;;;;;;22.23;30.26;97608.00;5035850;28;975;-75
2023/05/22 00:06:19;;;;;;;;;;;;;;;22.29;30.10;97611.03;5035957;28;898;-75
2023/05/22 00:08:44;;;;;;;;;;;;;;;21.96;30.64;97610.53;5052585;28;964;-74
2023/05/22 00:11:10;;;;;;;;;;;;;;;21.56;30.84;97611.06;5038057;28;1909;-75
2023/05/22 00:13:35;;;;;;;;;;;;;;;21.43;30.91;97602.56;5069412;28;927;-74
2023/05/22 00:16:01;;;;;;;;;;;;;;;21.43;30.95;97607.44;5069293;28;1287;-74
2023/05/22 00:18:27;;;;;;;;;;;;;;;21.36;30.98;97604.84;5052896;28;871;-74
2023/05/22 00:20:53;;;;;;;;;;;;;;;21.51;30.75;97603.13;5054022;28;1384;-74
2023/05/22 00:23:18;;;;;;;;;;;;;;;22.00;30.53;97603.50;5211143;22;3747;-78
2023/05/22 00:25:45;;;;;;;;;;;;;;;22.70;30.37;97595.75;5063143;28;1420;-78
2023/05/22 00:28:11;;;;;;;;;;;;;;;22.65;31.03;97590.69;5049378;28;1702;-78
2023/05/22 00:30:36;;;;;;;;;;;;;;;22.02;31.59;97597.34;5042511;28;1883;-77
2023/05/22 00:33:02;;;;;;;;;;;;;;;21.71;31.78;97600.84;5042586;28;983;-78
2023/05/22 00:35:28;;;;;;;;;;;;;;;21.56;31.70;97596.91;5014791;28;1494;-77
2023/05/22 00:37:54;;;;;;;;;;;;;;;21.52;31.33;97591.34;5062173;28;1399;-77
2023/05/22 00:40:20;;;;;;;;;;;;;;;21.26;31.42;97592.59;5049794;28;918;-77
2023/05/22 00:42:45;;;;;;;;;;;;;;;21.52;31.28;97593.41;5066142;28;1063;-78
2023/05/22 00:45:12;;;;;;;;;;;;;;;22.22;30.59;97600.72;5082941;28;925;-78
2023/05/22 00:47:37;;;;;;;;;;;;;;;21.85;30.50;97602.41;5049361;28;1345;-78
2023/05/22 00:50:04;;;;;;;;;;;;;;;21.72;30.61;97608.09;5065270;28;1985;-78
2023/05/22 00:52:30;;;;;;;;;;;;;;;21.58;30.41;97608.56;5083114;28;914;-78
2023/05/22 00:54:55;;;;;;;;;;;;;;;21.58;30.21;97608.56;5032741;28;1189;-78
2023/05/22 00:57:21;;;;;;;;;;;;;;;21.43;29.96;97608.22;5043553;28;1524;-78
2023/05/22 00:59:47;;;;;;;;;;;;;;;21.49;30.06;97611.28;5026868;28;933;-77
2023/05/22 01:02:15;;;;;;;;;;;;;;;21.29;30.41;97600.94;5027906;28;771;-78
2023/05/22 01:04:47;;;;;;;;;;;;;;;21.45;29.93;97604.94;5043713;28;1287;-78
2023/05/22 01:07:12;;;;;;;;;;;;;;;21.36;29.89;97597.16;5039104;28;1351;-78
2023/05/22 01:09:38;;;;;;;;;;;;;;;21.96;29.54;97599.19;5063015;28;1907;-78
2023/05/22 01:12:19;;;;;;;;;;;;;;;21.73;29.90;97592.69;5064631;28;876;-78
2023/05/22 01:14:52;;;;;;;;;;;;;;;21.83;29.65;97591.53;5044876;28;1213;-78
2023/05/22 01:17:21;;;;;;;;;;;;;;;21.51;30.18;97597.47;5046258;28;1414;-78
2023/05/22 01:19:52;;;;;;;;;;;;;;;21.33;30.11;97598.81;5061286;28;1078;-77
2023/05/22 01:22:39;;;;;;;;;;;;;;;21.62;29.37;97592.25;5045901;28;1074;-78
2023/05/22 01:25:31;;;;;;;;;;;;;;;21.43;30.14;97591.25;5044558;28;941;-78
2023/05/22 01:28:15;;;;;;;;;;;;;;;22.32;28.90;97582.53;5021602;28;1327;-78
2023/05/22 01:30:48;;;;;;;;;;;;;;;22.65;28.50;97599.19;5022807;28;1914;-77
2023/05/22 01:33:13;;;;;;;;;;;;;;;22.03;29.40;97587.63;4966507;28;1262;-77
2023/05/22 01:35:39;;;;;;;;;;;;;;;21.64;30.19;97601.06;4967402;28;1247;-78
2023/05/22 01:38:05;;;;;;;;;;;;;;;21.68;30.04;97596.09;4962678;29;1782;-78
2023/05/22 01:40:31;;;;;;;;;;;;;;;21.71;30.11;97600.84;4963113;28;1272;-78
2023/05/22 01:42:56;;;;;;;;;;;;;;;21.45;30.87;97604.94;4963409;28;1143;-78
2023/05/22 01:45:22;;;;;;;;;;;;;;;21.42;31.02;97600.19;4959746;28;1095;-78
2023/05/22 01:47:47;;;;;;;;;;;;;;;21.32;31.12;97602.91;4941353;29;1427;-77
2023/05/22 01:50:13;;;;;;;;;;;;;;;21.57;30.48;97609.81;4956706;28;1906;-77
2023/05/22 01:52:44;;;;;;;;;;;;;;;21.48;30.94;97604.03;4944532;29;1041;-78
2023/05/22 01:55:16;;;;;;;;;;;;;;;21.54;30.59;97602.22;4943865;29;1185;-78
2023/05/22 01:57:46;;;;;;;;;;;;;;;21.44;31.08;97604.16;4946739;29;1392;-78
2023/05/22 02:00:15;;;;;;;;;;;;;;;21.88;30.60;97606.38;4946993;28;1195;-78
2023/05/22 02:02:47;;;;;;;;;;;;;;;22.38;30.31;97613.94;4963246;29;926;-77
2023/05/22 02:05:13;;;;;;;;;;;;;;;22.51;29.95;97611.06;5037816;28;1126;-77
2023/05/22 02:07:39;;;;;;;;;;;;;;;21.89;30.64;97605.13;5037958;28;1551;-78
2023/05/22 02:10:05;;;;;;;;;;;;;;;21.85;30.65;97600.34;5044953;28;1946;-77
2023/05/22 02:12:30;;;;;;;;;;;;;;;21.79;30.73;97593.69;5062974;28;937;-77
2023/05/22 02:14:56;;;;;;;;;;;;;;;21.29;31.37;97603.78;5062482;28;1032;-77
2023/05/22 02:17:22;;;;;;;;;;;;;;;21.69;30.72;97594.06;5062312;28;1356;-78
2023/05/22 02:19:47;;;;;;;;;;;;;;;21.67;31.01;97600.19;5061700;28;1162;-77
2023/05/22 02:22:13;;;;;;;;;;;;;;;21.64;31.01;97601.06;5062549;28;1126;-78
2023/05/22 02:24:42;;;;;;;;;;;;;;;21.44;31.09;97603.34;5060447;28;1320;-78
2023/05/22 02:27:08;;;;;;;;;;;;;;;21.42;31.21;97605.84;5062142;28;982;-78
2023/05/22 02:29:34;;;;;;;;;;;;;;;22.12;30.64;97601.91;5044742;28;1910;-78
2023/05/22 02:32:00;;;;;;;;;;;;;;;22.32;30.52;97605.22;5079272;28;1305;-77
2023/05/22 02:34:30;;;;;;;;;;;;;;;22.44;30.15;97605.66;5044530;28;1134;-78
2023/05/22 02:37:02;;;;;;;;;;;;;;;22.19;30.41;97604.50;5055201;28;1564;-77
2023/05/22 02:39:29;;;;;;;;;;;;;;;21.99;30.59;97603.97;5056809;28;1216;-77
2023/05/22 02:41:54;;;;;;;;;;;;;;;21.55;31.21;97600.97;5041668;28;1219;-78
2023/05/22 02:44:20;;;;;;;;;;;;;;;21.71;30.91;97600.84;5057012;28;1174;-78
2023/05/22 02:46:46;;;;;;;;;;;;;;;21.53;31.13;97594.97;5036982;28;1358;-78
2023/05/22 02:49:12;;;;;;;;;;;;;;;21.67;30.98;97591.69;5020182;28;1072;-78
2023/05/22 02:51:37;;;;;;;;;;;;;;;21.69;30.65;97597.66;5038579;28;1977;-77
2023/05/22 02:54:03;;;;;;;;;;;;;;;21.41;31.31;97598.63;5019150;28;1474;-78
2023/05/22 02:56:28;;;;;;;;;;;;;;;21.59;30.87;97601.66;5001395;28;1070;-77
2023/05/22 02:58:55;;;;;;;;;;;;;;;21.37;31.35;97600.75;5000732;28;970;-77
2023/05/22 03:01:21;;;;;;;;;;;;;;;21.42;31.05;97600.19;5018392;28;1128;-77
2023/05/22 03:03:47;;;;;;;;;;;;;;;21.77;31.00;97599.03;4999142;28;1322;-77
2023/05/22 03:06:13;;;;;;;;;;;;;;;22.45;30.24;97612.91;5002018;28;910;-78
2023/05/22 03:08:42;;;;;;;;;;;;;;;22.32;30.09;97616.56;5000779;28;1041;-78
2023/05/22 03:11:07;;;;;;;;;;;;;;;21.98;30.74;97602.38;5001978;28;1979;-77
2023/05/22 03:13:33;;;;;;;;;;;;;;;21.71;31.06;97600.84;4998796;28;1504;-78
2023/05/22 03:15:58;;;;;;;;;;;;;;;21.67;30.79;97600.19;4986239;28;875;-77
2023/05/22 03:18:25;;;;;;;;;;;;;;;21.63;31.06;97605.16;5014022;28;1390;-78
2023/05/22 03:20:50;;;;;;;;;;;;;;;20.93;31.87;97558.03;5008475;28;1230;-77
2023/05/22 03:23:16;;;;;;;;;;;;;;;21.30;31.71;97611.06;5006288;28;1334;-77
2023/05/22 03:25:43;;;;;;;;;;;;;;;21.58;31.12;97605.72;5024974;28;1091;-78
2023/05/22 03:28:09;;;;;;;;;;;;;;;22.29;30.93;97617.50;5022951;28;1502;-77
2023/05/22 03:30:38;;;;;;;;;;;;;;;21.99;31.29;97615.28;5057568;28;1983;-78
2023/05/22 03:33:18;;;;;;;;;;;;;;;21.95;31.13;97614.63;5041129;28;1717;-78
2023/05/22 03:35:44;;;;;;;;;;;;;;;21.59;31.26;97610.94;5039714;28;1488;-77
2023/05/22 03:38:10;;;;;;;;;;;;;;;21.31;31.63;97612.66;5026622;28;1135;-78
2023/05/22 03:40:35;;;;;;;;;;;;;;;21.41;31.65;97615.59;5027482;28;933;-78
2023/05/22 03:43:02;;;;;;;;;;;;;;;21.63;31.24;97608.00;5026421;28;1032;-79
2023/05/22 03:45:27;;;;;;;;;;;;;;;21.47;31.51;97605.28;5006854;28;1347;-77
2023/05/22 03:47:53;;;;;;;;;;;;;;;21.63;31.27;97604.38;5018936;28;1344;-77
2023/05/22 03:50:18;;;;;;;;;;;;;;;21.78;30.68;97596.97;5020190;28;1985;-77
2023/05/22 03:52:44;;;;;;;;;;;;;;;21.67;31.27;97600.19;5019213;28;1683;-77
2023/05/22 03:55:09;;;;;;;;;;;;;;;21.71;30.97;97600.84;5003395;28;892;-78
2023/05/22 03:57:35;;;;;;;;;;;;;;;21.78;30.70;97605.47;4988096;28;1289;-78
2023/05/22 04:00:08;;;;;;;;;;;;;;;21.33;31.67;97598.81;5019767;28;860;-77
2023/05/22 04:02:38;;;;;;;;;;;;;;;21.65;31.06;97602.66;4989578;28;974;-76
2023/05/22 04:05:07;;;;;;;;;;;;;;;22.34;30.68;97608.41;4986956;28;1347;-77
2023/05/22 04:07:32;;;;;;;;;;;;;;;22.06;31.77;97603.69;4964985;28;1324;-78
2023/05/22 04:09:58;;;;;;;;;;;;;;;21.92;31.69;97596.50;4979680;28;1981;-78
2023/05/22 04:12:23;;;;;;;;;;;;;;;21.77;31.51;97599.03;4965325;28;1127;-77
2023/05/22 04:14:49;;;;;;;;;;;;;;;21.43;31.98;97601.78;4983864;28;1113;-77
2023/05/22 04:17:14;;;;;;;;;;;;;;;21.67;31.46;97605.84;4949792;28;1188;-77
2023/05/22 04:19:40;;;;;;;;;;;;;;;21.44;31.66;97606.19;4964185;28;1025;-78
2023/05/22 04:22:05;;;;;;;;;;;;;;;21.81;31.03;97604.56;4949582;28;1124;-78
2023/05/22 04:24:31;;;;;;;;;;;;;;;21.64;31.35;97612.41;4964295;28;1195;-78
2023/05/22 04:26:59;;;;;;;;;;;;;;;21.38;32.06;97608.00;4953153;28;1157;-79
2023/05/22 04:29:25;;;;;;;;;;;;;;;21.29;31.99;97609.44;4983719;28;1186;-78
2023/05/22 04:31:53;;;;;;;;;;;;;;;21.46;31.64;97609.38;4984845;28;1981;-78
2023/05/22 04:34:19;;;;;;;;;;;;;;;21.39;31.72;97601.09;4983155;28;1002;-78
2023/05/22 04:36:45;;;;;;;;;;;;;;;21.61;31.10;97607.66;4968594;28;1215;-78
2023/05/22 04:39:12;;;;;;;;;;;;;;;21.53;31.33;97611.97;5029561;28;902;-78
2023/05/22 04:41:39;;;;;;;;;;;;;;;21.41;31.31;97609.94;5010814;28;1242;-78
2023/05/22 04:44:05;;;;;;;;;;;;;;;21.46;31.35;97604.50;5026086;28;904;-78
2023/05/22 04:46:33;;;;;;;;;;;;;;;21.99;31.07;97606.78;5026800;28;982;-78
2023/05/22 04:49:00;;;;;;;;;;;;;;;22.65;30.76;97610.53;5026011;28;1215;-78
2023/05/22 04:51:27;;;;;;;;;;;;;;;22.00;31.62;97612.00;5011143;28;1903;-78
2023/05/22 04:53:54;;;;;;;;;;;;;;;21.90;31.59;97613.16;5030051;28;970;-79
2023/05/22 04:56:20;;;;;;;;;;;;;;;21.71;31.68;97609.34;5040316;28;1078;-78
2023/05/22 04:58:48;;;;;;;;;;;;;;;21.63;31.57;97605.16;5006075;28;1079;-78
2023/05/22 05:01:15;;;;;;;;;;;;;;;21.39;32.16;97609.59;5024525;28;961;-78
2023/05/22 05:03:41;;;;;;;;;;;;;;;21.41;32.06;97613.56;5005870;28;1499;-78
2023/05/22 05:06:07;;;;;;;;;;;;;;;21.47;32.00;97608.91;5008045;28;1458;-78
2023/05/22 05:08:33;;;;;;;;;;;;;;;21.58;31.33;97614.22;5004668;28;1501;-78
2023/05/22 05:10:59;;;;;;;;;;;;;;;21.45;31.78;97616.25;5023789;28;1903;-78
2023/05/22 05:13:24;;;;;;;;;;;;;;;21.69;31.26;97609.00;5021821;28;1134;-79
2023/05/22 05:15:50;;;;;;;;;;;;;;;21.64;31.51;97612.41;5023664;28;1075;-79
2023/05/22 05:18:16;;;;;;;;;;;;;;;21.60;31.23;97611.72;5006014;28;1138;-79
2023/05/22 05:20:41;;;;;;;;;;;;;;;21.68;30.97;97612.28;5006666;28;1460;-79
2023/05/22 05:23:09;;;;;;;;;;;;;;;21.55;31.43;97615.13;5021597;28;1600;-79
2023/05/22 05:25:37;;;;;;;;;;;;;;;21.44;31.42;97609.81;5021870;28;1592;-79
2023/05/22 05:28:09;;;;;;;;;;;;;;;21.77;30.88;97615.22;5039499;28;1614;-79
2023/05/22 05:30:36;;;;;;;;;;;;;;;21.65;30.98;97608.31;5079495;28;1955;-79
2023/05/22 05:33:18;;;;;;;;;;;;;;;21.42;31.28;97611.53;5062738;28;1082;-79
2023/05/22 05:36:04;;;;;;;;;;;;;;;21.60;30.97;97617.38;5064952;28;1063;-79
2023/05/22 05:38:31;;;;;;;;;;;;;;;21.79;30.75;97610.69;5079070;28;1311;-79
2023/05/22 05:40:56;;;;;;;;;;;;;;;21.82;30.78;97612.63;5080951;28;1209;-78
2023/05/22 05:43:24;;;;;;;;;;;;;;;21.53;31.10;97606.28;5078949;28;1191;-78
2023/05/22 05:45:50;;;;;;;;;;;;;;;21.79;31.30;97602.19;5063441;28;1309;-78
2023/05/22 05:48:16;;;;;;;;;;;;;;;22.50;30.55;97615.16;5044451;28;1240;-79
2023/05/22 05:50:44;;;;;;;;;;;;;;;22.63;30.87;97618.69;5063473;28;1957;-79
2023/05/22 05:53:10;;;;;;;;;;;;;;;21.85;31.81;97616.56;5078498;28;1178;-79
2023/05/22 05:55:36;;;;;;;;;;;;;;;21.70;32.18;97604.91;5062994;28;1229;-78
2023/05/22 05:58:02;;;;;;;;;;;;;;;21.63;31.90;97612.88;5078654;28;1145;-79
2023/05/22 06:00:43;;;;;;;;;;;;;;;21.54;31.93;97613.53;5077753;28;1478;-79
2023/05/22 06:03:09;;;;;;;;;;;;;;;21.46;31.71;97613.00;5078809;28;1360;-79
2023/05/22 06:05:58;;;;;;;;;;;;;;;21.47;31.87;97619.44;5082916;28;1359;-78
2023/05/22 06:08:43;;;;;;;;;;;;;;;21.68;31.51;97627.25;5075389;28;791;-78
2023/05/22 06:11:09;;;;;;;;;;;;;;;21.64;31.62;97635.06;5080400;28;1905;-79
2023/05/22 06:13:37;;;;;;;;;;;;;;;21.47;32.00;97630.75;5077037;28;1241;-79
2023/05/22 06:16:03;;;;;;;;;;;;;;;21.18;32.38;97631.63;5063423;28;1121;-79
2023/05/22 06:18:28;;;;;;;;;;;;;;;21.66;31.67;97635.41;5077581;28;1103;-79
2023/05/22 06:20:57;;;;;;;;;;;;;;;21.43;31.77;97641.41;5079894;28;1126;-79
2023/05/22 06:23:23;;;;;;;;;;;;;;;21.54;31.57;97641.84;5055046;28;1173;-78
2023/05/22 06:25:49;;;;;;;;;;;;;;;21.47;31.48;97636.44;5058858;28;1112;-79
2023/05/22 06:28:16;;;;;;;;;;;;;;;21.48;31.51;97633.13;5023521;28;1152;-78
2023/05/22 06:30:42;;;;;;;;;;;;;;;21.39;31.92;97635.06;5041444;28;1910;-79
2023/05/22 06:33:13;;;;;;;;;;;;;;;21.77;31.10;97638.69;5039774;28;1102;-79
2023/05/22 06:35:39;;;;;;;;;;;;;;;21.68;31.08;97641.41;5008967;28;1279;-79
2023/05/22 06:38:06;;;;;;;;;;;;;;;21.53;31.59;97643.09;5040902;28;1158;-79
2023/05/22 06:40:32;;;;;;;;;;;;;;;21.43;31.78;97641.41;5041344;28;1367;-79
2023/05/22 06:43:06;;;;;;;;;;;;;;;21.36;31.74;97635.97;5023297;28;1091;-79
2023/05/22 06:45:38;;;;;;;;;;;;;;;21.36;31.65;97636.75;5042489;28;1326;-79
2023/05/22 06:48:21;;;;;;;;;;;;;;;21.64;31.42;97635.06;5025828;28;1039;-79
2023/05/22 06:51:05;;;;;;;;;;;;;;;21.67;31.29;97639.81;5011349;28;1902;-79
2023/05/22 06:53:30;;;;;;;;;;;;;;;21.75;31.19;97637.53;5026350;28;1217;-78
2023/05/22 06:55:56;;;;;;;;;;;;;;;21.88;30.69;97637.53;5062278;28;1389;-79
2023/05/22 06:58:35;;;;;;;;;;;;;;;21.67;31.12;97647.53;5045270;28;1181;-79
2023/05/22 07:01:03;;;;;;;;;;;;;;;21.64;31.28;97640.72;5062509;28;1116;-78
2023/05/22 07:03:37;;;;;;;;;;;;;;;21.38;31.67;97633.47;5029258;28;1259;-78
2023/05/22 07:06:21;;;;;;;;;;;;;;;21.54;31.25;97642.63;5062914;28;993;-79
2023/05/22 07:08:47;;;;;;;;;;;;;;;21.42;31.43;97640.63;5059484;28;1154;-78
2023/05/22 07:11:13;;;;;;;;;;;;;;;21.63;31.03;97644.78;5027246;28;1983;-79
2023/05/22 07:13:38;;;;;;;;;;;;;;;21.65;31.20;97647.94;5002845;28;1136;-78
2023/05/22 07:16:05;;;;;;;;;;;;;;;21.62;31.11;97648.09;5021702;28;1232;-79
2023/05/22 07:18:30;;;;;;;;;;;;;;;21.47;31.54;97639.25;5018617;28;1289;-79
2023/05/22 07:20:57;;;;;;;;;;;;;;;21.34;31.92;97639.25;5021571;28;1183;-78
2023/05/22 07:23:22;;;;;;;;;;;;;;;21.38;31.60;97633.47;5018660;28;1278;-78
2023/05/22 07:25:48;;;;;;;;;;;;;;;21.56;31.53;97639.38;5004502;28;1179;-79
2023/05/22 07:28:15;;;;;;;;;;;;;;;21.45;31.41;97628.41;5019364;28;1681;-78
2023/05/22 07:31:00;;;;;;;;;;;;;;;21.46;31.71;97635.63;5004825;28;1898;-78
2023/05/22 07:33:26;;;;;;;;;;;;;;;21.60;31.31;97634.38;5018573;28;1182;-79
2023/05/22 07:35:52;;;;;;;;;;;;;;;21.59;31.38;97638.44;5020851;28;1286;-79
2023/05/22 07:38:18;;;;;;;;;;;;;;;21.51;31.55;97628.63;5018807;28;1168;-78
2023/05/22 07:40:53;;;;;;;;;;;;;;;21.83;30.92;97628.34;5004465;28;1286;-78
2023/05/22 07:43:21;;;;;;;;;;;;;;;21.78;30.87;97620.44;5034680;28;1880;-79
2023/05/22 07:45:47;;;;;;;;;;;;;;;21.29;32.00;97615.09;5093612;28;1416;-78
2023/05/22 07:48:15;;;;;;;;;;;;;;;21.44;31.88;97626.00;5027011;28;1152;-78
2023/05/22 07:50:44;;;;;;;;;;;;;;;21.49;31.86;97619.78;5061490;28;1976;-79
2023/05/22 07:53:10;;;;;;;;;;;;;;;21.73;31.22;97612.50;5022702;28;1244;-78
2023/05/22 07:55:38;;;;;;;;;;;;;;;21.77;31.31;97627.34;5060013;28;1351;-78
2023/05/22 07:58:04;;;;;;;;;;;;;;;21.64;31.35;97623.72;5009381;28;1094;-79
2023/05/22 08:00:33;;;;;;;;;;;;;;;21.45;31.82;97610.59;5043562;28;1546;-79
2023/05/22 08:02:59;;;;;;;;;;;;;;;21.73;31.22;97615.34;5042498;28;949;-78
2023/05/22 08:05:25;;;;;;;;;;;;;;;21.83;31.13;97621.91;5059206;28;967;-78
2023/05/22 08:07:50;;;;;;;;;;;;;;;21.33;31.97;97615.81;5059246;28;1029;-79
2023/05/22 08:10:16;;;;;;;;;;;;;;;21.59;31.62;97621.47;5042476;28;1997;-78
2023/05/22 08:12:42;;;;;;;;;;;;;;;21.61;31.39;97624.66;5043090;28;1277;-78
2023/05/22 08:15:07;;;;;;;;;;;;;;;21.67;31.29;97616.38;5041856;28;963;-78
2023/05/22 08:17:33;;;;;;;;;;;;;;;21.56;31.63;97616.72;5043802;28;1308;-78
2023/05/22 08:19:58;;;;;;;;;;;;;;;21.68;31.56;97620.78;5041894;28;923;-78
2023/05/22 08:22:24;;;;;;;;;;;;;;;21.70;31.61;97621.91;5042941;28;906;-79
2023/05/22 08:24:50;;;;;;;;;;;;;;;21.79;31.23;97619.19;5089609;28;1227;-78
2023/05/22 08:27:15;;;;;;;;;;;;;;;21.32;32.10;97613.44;5064736;28;917;-78
2023/05/22 08:29:41;;;;;;;;;;;;;;;21.41;32.12;97615.59;5042458;28;1905;-79
2023/05/22 08:32:06;;;;;;;;;;;;;;;21.74;31.36;97614.09;5060119;28;1003;-79
2023/05/22 08:34:32;;;;;;;;;;;;;;;21.79;31.04;97613.50;5042637;28;1161;-78
2023/05/22 08:36:58;;;;;;;;;;;;;;;21.95;30.93;97617.44;5043936;28;1249;-78
2023/05/22 08:39:23;;;;;;;;;;;;;;;21.90;30.99;97613.16;5059306;28;1012;-79
2023/05/22 08:41:49;;;;;;;;;;;;;;;21.85;30.88;97611.69;5042701;28;983;-78
2023/05/22 08:44:15;;;;;;;;;;;;;;;21.55;31.75;97617.94;5040668;28;907;-78
2023/05/22 08:46:43;;;;;;;;;;;;;;;21.75;31.53;97617.72;5059601;28;1011;-79
2023/05/22 08:49:08;;;;;;;;;;;;;;;21.74;31.26;97611.25;5001573;28;1067;-79
2023/05/22 08:51:36;;;;;;;;;;;;;;;21.55;31.74;97615.94;5003021;28;1985;-79
2023/05/22 08:54:02;;;;;;;;;;;;;;;21.61;31.57;97619.00;5001619;28;953;-78
2023/05/22 08:56:28;;;;;;;;;;;;;;;21.72;31.52;97627.13;5003013;28;930;-78
2023/05/22 08:58:54;;;;;;;;;;;;;;;21.69;31.34;97613.88;4985309;28;1055;-79
2023/05/22 09:01:19;;;;;;;;;;;;;;;21.99;30.83;97609.63;5006048;28;1331;-78
2023/05/22 09:03:45;;;;;;;;;;;;;;;21.77;31.38;97616.03;5000988;28;903;-78
2023/05/22 09:06:11;;;;;;;;;;;;;;;21.47;31.64;97608.13;4986880;28;1012;-78
2023/05/22 09:08:37;;;;;;;;;;;;;;;21.66;31.53;97607.09;5001218;28;1096;-79
2023/05/22 09:11:02;;;;;;;;;;;;;;;21.59;31.42;97604.47;4986660;28;1923;-78
2023/05/22 09:13:29;;;;;;;;;;;;;;;21.63;31.58;97605.16;4984694;28;963;-78
2023/05/22 09:15:58;;;;;;;;;;;;;;;21.67;31.30;97605.06;4970569;28;1046;-78
2023/05/22 09:18:25;;;;;;;;;;;;;;;21.64;31.34;97603.91;4984762;28;1033;-78
2023/05/22 09:20:51;;;;;;;;;;;;;;;21.38;31.65;97605.16;4986940;28;927;-79
2023/05/22 09:23:17;;;;;;;;;;;;;;;21.52;31.54;97605.50;4945867;29;1247;-78
2023/05/22 09:25:42;;;;;;;;;;;;;;;21.70;31.25;97604.13;4967373;28;1542;-78
2023/05/22 09:28:09;;;;;;;;;;;;;;;21.58;31.53;97595.19;4965682;28;958;-78
2023/05/22 09:30:35;;;;;;;;;;;;;;;21.48;31.75;97592.72;4950286;28;1966;-78
2023/05/22 09:33:01;;;;;;;;;;;;;;;21.69;31.28;97592.00;4964997;28;933;-78
2023/05/22 09:35:29;;;;;;;;;;;;;;;21.47;31.55;97586.25;4966222;28;1419;-79
2023/05/22 09:37:56;;;;;;;;;;;;;;;21.44;31.62;97592.03;4966615;28;929;-79
2023/05/22 09:40:22;;;;;;;;;;;;;;;21.51;31.67;97586.16;4941115;28;1281;-78
2023/05/22 09:42:47;;;;;;;;;;;;;;;21.59;31.73;97601.66;5004610;28;1114;-78
2023/05/22 09:45:13;;;;;;;;;;;;;;;21.74;31.50;97588.59;5019996;28;944;-78
2023/05/22 09:47:39;;;;;;;;;;;;;;;21.44;31.66;97586.38;5005416;28;943;-78
2023/05/22 09:50:06;;;;;;;;;;;;;;;21.40;31.78;97586.50;5004228;28;1967;-78
2023/05/22 09:52:34;;;;;;;;;;;;;;;21.85;30.91;97589.03;5005198;28;899;-79
2023/05/22 09:55:03;;;;;;;;;;;;;;;21.64;31.63;97589.75;5036774;28;1140;-78
2023/05/22 09:57:29;;;;;;;;;;;;;;;21.84;31.09;97581.78;5045845;28;940;-78
2023/05/22 09:59:57;;;;;;;;;;;;;;;21.85;31.40;97583.34;5023760;28;1020;-79
2023/05/22 10:02:23;;;;;;;;;;;;;;;21.80;31.15;97575.44;5025340;28;972;-78
2023/05/22 10:04:49;;;;;;;;;;;;;;;21.76;31.15;97585.31;5024096;28;1233;-78
2023/05/22 10:07:15;;;;;;;;;;;;;;;21.67;31.73;97588.84;5025125;28;1502;-79
2023/05/22 10:09:41;;;;;;;;;;;;;;;22.01;30.91;97584.44;5023781;28;1981;-78
2023/05/22 10:12:06;;;;;;;;;;;;;;;21.84;31.34;97593.09;5023970;28;896;-78
2023/05/22 10:14:32;;;;;;;;;;;;;;;21.85;31.21;97591.84;5023535;28;1154;-79
2023/05/22 10:17:00;;;;;;;;;;;;;;;21.75;31.49;97584.50;5005392;28;1611;-78
2023/05/22 10:19:28;;;;;;;;;;;;;;;21.97;31.10;97589.47;5019618;28;946;-79
2023/05/22 10:21:53;;;;;;;;;;;;;;;22.04;30.72;97586.38;5021834;28;1240;-79
2023/05/22 10:24:19;;;;;;;;;;;;;;;21.75;31.44;97578.84;5020103;28;1224;-78
2023/05/22 10:26:44;;;;;;;;;;;;;;;21.64;31.42;97578.44;5005267;28;1060;-79
2023/05/22 10:29:10;;;;;;;;;;;;;;;21.81;31.12;97581.91;5003176;28;951;-78
2023/05/22 10:31:55;;;;;;;;;;;;;;;21.89;31.16;97582.47;5005261;28;1906;-78
2023/05/22 10:34:36;;;;;;;;;;;;;;;21.62;31.45;97580.94;5019952;28;1373;-78
2023/05/22 10:37:20;;;;;;;;;;;;;;;21.58;31.57;97580.25;5037646;28;993;-78
2023/05/22 10:39:54;;;;;;;;;;;;;;;21.72;31.45;97576.16;5019475;28;1288;-78
2023/05/22 10:42:20;;;;;;;;;;;;;;;21.75;31.08;97573.19;5000959;28;964;-79
2023/05/22 10:44:47;;;;;;;;;;;;;;;21.97;30.72;97570.44;5016611;28;1289;-78
2023/05/22 10:47:13;;;;;;;;;;;;;;;21.87;31.13;97567.97;5001402;28;821;-78
2023/05/22 10:49:43;;;;;;;;;;;;;;;21.77;31.35;97567.09;5015542;28;1489;-78
2023/05/22 10:52:08;;;;;;;;;;;;;;;21.91;30.84;97574.28;5017295;28;906;-78
2023/05/22 10:54:37;;;;;;;;;;;;;;;21.54;31.60;97568.25;4988098;28;1062;-78
2023/05/22 10:57:28;;;;;;;;;;;;;;;21.82;30.89;97567.28;5004708;28;1035;-78
2023/05/22 11:00:04;;;;;;;;;;;;;;;21.86;31.13;97561.50;4980132;28;1242;-79
2023/05/22 11:02:30;;;;;;;;;;;;;;;21.80;31.06;97564.13;4982354;28;996;-79
2023/05/22 11:05:27;;;;;;;;;;;;;;;21.79;30.82;97568.19;4980747;28;1373;-78
2023/05/22 11:08:07;;;;;;;;;;;;;;;21.65;31.46;97573.56;4923278;29;1011;-78
2023/05/22 11:10:51;;;;;;;;;;;;;;;21.52;31.49;97570.75;4923664;29;1910;-78
2023/05/22 11:13:17;;;;;;;;;;;;;;;21.81;30.73;97568.56;4913161;29;1082;-79
2023/05/22 11:15:43;;;;;;;;;;;;;;;21.92;30.45;97564.56;4886431;29;1125;-79
2023/05/22 11:18:08;;;;;;;;;;;;;;;21.56;31.26;97565.78;4869241;29;1371;-79
2023/05/22 11:20:35;;;;;;;;;;;;;;;21.45;31.44;97565.31;4870961;29;954;-79
2023/05/22 11:23:02;;;;;;;;;;;;;;;21.68;31.01;97562.13;4872433;29;1424;-78
2023/05/22 11:25:28;;;;;;;;;;;;;;;22.15;31.03;97557.69;4888507;29;1568;-78
2023/05/22 11:27:54;;;;;;;;;;;;;;;22.60;31.19;97568.59;4872821;29;1525;-79
2023/05/22 11:30:23;;;;;;;;;;;;;;;22.84;31.25;97560.38;4867103;29;1988;-78
2023/05/22 11:32:49;;;;;;;;;;;;;;;21.92;32.61;97554.03;4836521;29;971;-78
2023/05/22 11:35:15;;;;;;;;;;;;;;;21.88;32.72;97558.22;4848877;29;993;-78
2023/05/22 11:37:41;;;;;;;;;;;;;;;22.14;32.01;97571.06;4917556;29;1139;-79
2023/05/22 11:40:07;;;;;;;;;;;;;;;21.78;32.44;97577.16;4927590;29;1120;-79
2023/05/22 11:42:33;;;;;;;;;;;;;;;21.82;32.04;97584.28;4932411;28;1196;-78
2023/05/22 11:44:58;;;;;;;;;;;;;;;21.36;32.08;97522.78;4983079;28;1593;-78
2023/05/22 11:47:25;;;;;;;;;;;;;;;21.69;32.15;97558.03;5032097;28;979;-78
2023/05/22 11:49:51;;;;;;;;;;;;;;;21.74;31.96;97570.81;5055253;28;1902;-78
2023/05/22 11:52:16;;;;;;;;;;;;;;;21.69;31.74;97572.19;5040571;28;1244;-79
2023/05/22 11:54:45;;;;;;;;;;;;;;;21.70;32.16;97553.94;5038956;28;1002;-78
2023/05/22 11:57:11;;;;;;;;;;;;;;;21.87;31.75;97554.59;5040545;28;1296;-79
2023/05/22 11:59:36;;;;;;;;;;;;;;;21.79;31.63;97562.53;5023585;28;1014;-78
2023/05/22 12:02:02;;;;;;;;;;;;;;;21.46;32.11;97583.91;5023927;28;995;-78
2023/05/22 12:04:27;;;;;;;;;;;;;;;21.67;31.84;97576.72;5038115;28;1586;-78
2023/05/22 12:06:53;;;;;;;;;;;;;;;21.87;31.51;97584.97;5056680;28;947;-78
2023/05/22 12:09:18;;;;;;;;;;;;;;;21.51;31.87;97581.28;5054420;28;1060;-78
2023/05/22 12:11:47;;;;;;;;;;;;;;;21.92;31.16;97575.88;5055966;28;1891;-78
2023/05/22 12:14:12;;;;;;;;;;;;;;;21.85;30.92;97577.69;5037911;28;1062;-78
2023/05/22 12:16:38;;;;;;;;;;;;;;;21.89;31.25;97571.13;5039338;28;1043;-78
2023/05/22 12:19:05;;;;;;;;;;;;;;;21.88;30.93;97569.56;5038052;28;1055;-78
2023/05/22 12:21:31;;;;;;;;;;;;;;;21.59;31.57;97564.84;5039395;28;929;-78
2023/05/22 12:23:56;;;;;;;;;;;;;;;21.53;31.37;97558.19;4998146;28;1265;-78
2023/05/22 12:26:22;;;;;;;;;;;;;;;21.67;31.36;97554.88;4982858;28;957;-78
2023/05/22 12:28:51;;;;;;;;;;;;;;;21.79;31.02;97554.03;4998339;28;933;-78
2023/05/22 12:31:20;;;;;;;;;;;;;;;21.71;31.30;97566.88;4967583;28;1966;-78
2023/05/22 12:33:45;;;;;;;;;;;;;;;21.57;31.60;97573.00;4982018;28;757;-79
2023/05/22 12:36:11;;;;;;;;;;;;;;;21.53;31.49;97578.00;4971459;28;922;-78
2023/05/22 12:38:38;;;;;;;;;;;;;;;21.57;31.12;97584.34;4982606;28;1033;-78
2023/05/22 12:41:03;;;;;;;;;;;;;;;21.49;31.27;97588.63;5000873;28;940;-78
2023/05/22 12:43:29;;;;;;;;;;;;;;;21.65;31.09;97580.00;4998112;28;1312;-79
2023/05/22 12:45:54;;;;;;;;;;;;;;;21.48;31.15;97582.19;4968529;28;986;-78
2023/05/22 12:48:20;;;;;;;;;;;;;;;21.62;31.11;97569.59;4965748;28;1278;-78
2023/05/22 12:50:45;;;;;;;;;;;;;;;21.89;30.73;97565.47;4983530;28;1884;-78
2023/05/22 12:53:11;;;;;;;;;;;;;;;22.27;31.22;97568.19;4966209;28;1424;-79
2023/05/22 12:55:37;;;;;;;;;;;;;;;22.36;31.77;97563.38;4982242;28;932;-78
2023/05/22 12:58:03;;;;;;;;;;;;;;;22.56;31.98;97559.44;5018398;28;997;-78
2023/05/22 13:00:28;;;;;;;;;;;;;;;22.42;32.06;97557.13;5002577;28;904;-78
2023/05/22 13:02:54;;;;;;;;;;;;;;;21.89;32.81;97554.91;5013903;28;1144;-78